METAR Data
IDs: Format: Raw Decoded Include TAF

Data at: 0517 UTC 03 Jul 2022

METAR for:KGGE (Georgetown Cnty, SC, US)
Text:KGGE 030515Z AUTO 22004KT 10SM CLR 23/23 A3002 RMK AO2 LTG DSNT W
Temperature: 23.0°C ( 73°F)
Dewpoint: 23.0°C ( 73°F) [RH = 100%]
Pressure (altimeter):30.02 inches Hg (1016.7 mb)
Winds:from the SW (220 degrees) at 5 MPH (4 knots; 2.1 m/s)
Visibility:10 or more sm (16+ km)
Ceiling:at least 12,000 feet AGL
Clouds:sky clear below 12,000 feet AGL
QC Flag:automated observation with no human augmentation

TAF for:KGGE (Georgetown Cnty, SC, US)
Text:No data found